Time;durP1;ratioP1;P1;durP2;ratioP2;P2;SDS_P1;SDS_P2;PMS_P1;PMS_P2;Temp;Humidity;BMP_temperature;BMP_pressure;BME280_temperature;BME280_humidity;BME280_pressure;Samples;Min_cycle;Max_cycle;Signal;HPM_P1;HPM_P2
2024/01/10 00:01:35;;;;;;;3.87;1.73;;;-2.40;59.80;;;;;;5006445;28;20014;-88
2024/01/10 00:04:00;;;;;;;4.73;1.50;;;-2.40;59.90;;;;;;5006053;28;20010;-88
2024/01/10 00:06:26;;;;;;;7.87;2.00;;;-2.40;59.90;;;;;;5005994;28;20022;-89
2024/01/10 00:08:52;;;;;;;7.13;2.07;;;-2.40;60.10;;;;;;5005435;28;20467;-87
2024/01/10 00:11:18;;;;;;;5.13;1.77;;;-2.40;60.20;;;;;;5022258;28;20029;-89
2024/01/10 00:13:43;;;;;;;6.10;1.97;;;-2.40;60.30;;;;;;5006500;28;20026;-89
2024/01/10 00:16:13;;;;;;;8.07;1.83;;;-2.40;60.50;;;;;;5005730;28;20121;-90
2024/01/10 00:18:40;;;;;;;6.13;1.70;;;-2.40;60.40;;;;;;5006313;28;20036;-89
2024/01/10 00:21:06;;;;;;;4.33;1.33;;;-2.40;60.40;;;;;;5005190;28;20285;-90
2024/01/10 00:23:32;;;;;;;6.47;1.63;;;-2.40;60.40;;;;;;5006136;28;20784;-88
2024/01/10 00:25:57;;;;;;;5.63;1.50;;;-2.40;60.40;;;;;;5005827;28;20353;-92
2024/01/10 00:28:24;;;;;;;4.23;1.40;;;-2.50;60.40;;;;;;5006055;28;20096;-91
2024/01/10 00:30:50;;;;;;;4.63;1.50;;;-2.50;60.40;;;;;;5022878;28;20022;-90
2024/01/10 00:33:16;;;;;;;6.63;1.80;;;-2.60;60.40;;;;;;5005497;28;20283;-90
2024/01/10 00:35:42;;;;;;;5.60;1.60;;;-2.60;60.60;;;;;;5005834;28;20042;-85
2024/01/10 00:38:08;;;;;;;5.87;1.53;;;-2.60;60.80;;;;;;5004474;28;20021;-88
2024/01/10 00:40:33;;;;;;;4.77;1.50;;;-2.70;60.80;;;;;;5005485;28;20471;-87
2024/01/10 00:43:00;;;;;;;4.20;1.50;;;-2.70;60.60;;;;;;5023058;28;20319;-88
2024/01/10 00:45:26;;;;;;;3.90;1.10;;;-2.70;61.00;;;;;;5005606;28;20783;-86
2024/01/10 00:47:52;;;;;;;6.37;1.73;;;-2.70;61.20;;;;;;5004877;28;20101;-86
2024/01/10 00:50:18;;;;;;;3.93;1.37;;;-2.70;61.20;;;;;;5004957;28;20277;-87
2024/01/10 00:52:47;;;;;;;5.30;1.20;;;-2.80;61.10;;;;;;5005041;28;20034;-87
2024/01/10 00:55:13;;;;;;;4.33;1.33;;;-2.80;61.10;;;;;;5003786;28;20052;-87
2024/01/10 00:57:39;;;;;;;4.63;1.63;;;-2.80;61.40;;;;;;5005353;28;20280;-86
2024/01/10 01:00:09;;;;;;;3.40;1.60;;;-2.80;61.50;;;;;;4987321;28;20030;-87
2024/01/10 01:02:35;;;;;;;5.53;1.70;;;-2.90;61.40;;;;;;5004944;28;20288;-86
2024/01/10 01:05:02;;;;;;;5.17;1.50;;;-2.90;61.50;;;;;;5004896;28;20363;-87
2024/01/10 01:07:28;;;;;;;5.37;1.93;;;-2.90;61.80;;;;;;5004163;28;20289;-86
2024/01/10 01:09:54;;;;;;;5.40;1.50;;;-2.90;62.10;;;;;;5005331;28;20281;-87
2024/01/10 01:12:19;;;;;;;4.03;1.33;;;-2.90;62.00;;;;;;5004152;28;20018;-85
2024/01/10 01:14:45;;;;;;;4.77;1.63;;;-2.90;62.30;;;;;;5004729;28;20038;-88
2024/01/10 01:17:11;;;;;;;4.60;1.40;;;-3.00;62.50;;;;;;5004140;28;20026;-88
2024/01/10 01:19:37;;;;;;;5.73;1.93;;;-2.90;62.90;;;;;;5004599;28;20034;-88
2024/01/10 01:22:02;;;;;;;5.27;1.50;;;-2.90;62.70;;;;;;5004116;28;20110;-87
2024/01/10 01:24:28;;;;;;;5.53;1.40;;;-2.90;62.70;;;;;;5004567;28;20014;-87
2024/01/10 01:26:54;;;;;;;6.60;1.50;;;-2.90;62.70;;;;;;5005143;28;20034;-89
2024/01/10 01:29:20;;;;;;;6.37;1.80;;;-3.00;62.90;;;;;;5003830;28;20069;-87
2024/01/10 01:31:46;;;;;;;5.07;1.57;;;-2.90;63.20;;;;;;5020793;28;20025;-88
2024/01/10 01:34:12;;;;;;;4.90;1.60;;;-2.90;63.30;;;;;;5020294;28;20277;-89
2024/01/10 01:36:38;;;;;;;6.33;2.07;;;-2.90;63.50;;;;;;5004319;28;20273;-88
2024/01/10 01:39:04;;;;;;;5.83;1.87;;;-2.90;63.70;;;;;;5004399;28;20021;-89
2024/01/10 01:41:29;;;;;;;7.93;2.10;;;-2.90;63.90;;;;;;5004601;28;20026;-89
2024/01/10 01:43:55;;;;;;;6.43;1.90;;;-2.90;63.60;;;;;;5004912;28;20033;-87
2024/01/10 01:46:22;;;;;;;7.33;2.07;;;-2.90;63.90;;;;;;5003783;28;20451;-87
2024/01/10 01:48:48;;;;;;;7.20;1.87;;;-2.90;63.90;;;;;;5022480;28;20026;-87
2024/01/10 01:51:15;;;;;;;5.23;1.73;;;-2.90;63.90;;;;;;5021515;28;20284;-88
2024/01/10 01:53:44;;;;;;;5.13;1.83;;;-2.90;64.00;;;;;;5004422;28;20273;-86
2024/01/10 01:56:10;;;;;;;6.53;1.50;;;-2.90;64.20;;;;;;5004026;28;20285;-85
2024/01/10 01:58:37;;;;;;;5.63;1.57;;;-2.90;63.90;;;;;;5003975;28;20332;-87
2024/01/10 02:01:04;;;;;;;4.03;1.30;;;-3.00;64.30;;;;;;5004359;28;20312;-86
2024/01/10 02:03:33;;;;;;;3.93;1.50;;;-3.00;64.10;;;;;;5004106;28;20323;-87
2024/01/10 02:06:00;;;;;;;7.57;2.37;;;-3.00;65.10;;;;;;5004361;28;20327;-86
2024/01/10 02:08:26;;;;;;;9.10;2.47;;;-3.00;65.30;;;;;;5021570;28;20296;-87
2024/01/10 02:10:52;;;;;;;6.03;2.23;;;-3.00;65.30;;;;;;5022801;28;20296;-86
2024/01/10 02:13:18;;;;;;;4.80;1.60;;;-3.00;64.90;;;;;;5010378;28;20029;-85
2024/01/10 02:15:44;;;;;;;7.20;2.30;;;-3.00;64.60;;;;;;5008649;28;20029;-85
2024/01/10 02:18:12;;;;;;;6.30;1.70;;;-3.00;64.70;;;;;;5008380;28;20037;-84
2024/01/10 02:20:38;;;;;;;8.47;2.47;;;-3.10;65.10;;;;;;5023298;28;20017;-85
2024/01/10 02:23:04;;;;;;;6.23;2.40;;;-3.00;64.80;;;;;;5008215;28;20285;-85
2024/01/10 02:25:29;;;;;;;5.20;2.07;;;-3.10;64.70;;;;;;5007130;28;20302;-86
2024/01/10 02:27:55;;;;;;;5.13;1.70;;;-3.00;64.60;;;;;;5007553;28;20046;-87
2024/01/10 02:30:21;;;;;;;5.37;1.90;;;-3.10;64.60;;;;;;5007143;28;20018;-86
2024/01/10 02:32:46;;;;;;;5.47;1.70;;;-3.10;64.70;;;;;;5007322;28;20026;-87
2024/01/10 02:35:12;;;;;;;6.93;1.90;;;-3.10;65.10;;;;;;5007548;28;20073;-87
2024/01/10 02:37:38;;;;;;;8.03;2.97;;;-3.10;65.20;;;;;;5024928;28;20026;-87
2024/01/10 02:40:04;;;;;;;7.17;2.40;;;-3.10;65.90;;;;;;5007878;28;20025;-87
2024/01/10 02:42:30;;;;;;;9.90;2.77;;;-3.10;66.20;;;;;;5007317;28;20060;-87
2024/01/10 02:44:56;;;;;;;5.93;2.10;;;-3.10;66.20;;;;;;5007321;28;20280;-87
2024/01/10 02:47:22;;;;;;;7.73;2.23;;;-3.10;66.10;;;;;;5007047;28;20293;-87
2024/01/10 02:49:48;;;;;;;6.30;2.03;;;-3.10;66.00;;;;;;5007123;28;20024;-87
2024/01/10 02:52:13;;;;;;;7.53;2.30;;;-3.10;66.10;;;;;;5007064;28;20034;-87
2024/01/10 02:54:39;;;;;;;5.10;1.90;;;-3.10;66.10;;;;;;5007201;28;20034;-85
2024/01/10 02:57:05;;;;;;;6.60;2.40;;;-3.10;66.30;;;;;;5007595;28;20033;-87
2024/01/10 02:59:30;;;;;;;6.97;2.60;;;-3.10;66.40;;;;;;5006526;28;20099;-87
2024/01/10 03:01:56;;;;;;;7.23;2.20;;;-3.10;66.50;;;;;;5007435;28;20122;-87
2024/01/10 03:04:22;;;;;;;4.93;1.50;;;-3.20;66.10;;;;;;5006441;28;20496;-87
2024/01/10 03:06:47;;;;;;;5.50;2.37;;;-3.20;66.00;;;;;;5006978;28;20094;-85
2024/01/10 03:09:13;;;;;;;6.17;1.73;;;-3.20;66.40;;;;;;5006715;28;20034;-86
2024/01/10 03:11:38;;;;;;;8.60;2.50;;;-3.20;66.20;;;;;;5007201;28;20057;-85
2024/01/10 03:14:09;;;;;;;8.83;2.03;;;-3.20;66.50;;;;;;5006666;28;20029;-85
2024/01/10 03:16:35;;;;;;;6.20;2.00;;;-3.20;66.40;;;;;;5006211;28;20041;-85
2024/01/10 03:19:04;;;;;;;6.13;2.13;;;-3.20;66.30;;;;;;5023162;28;20268;-85
2024/01/10 03:21:30;;;;;;;4.53;1.70;;;-3.30;66.10;;;;;;5006103;28;20289;-85
2024/01/10 03:23:57;;;;;;;5.43;1.90;;;-3.30;66.40;;;;;;5005780;28;20311;-87
2024/01/10 03:26:24;;;;;;;7.10;1.97;;;-3.30;66.40;;;;;;5006425;28;20025;-86
2024/01/10 03:28:49;;;;;;;6.73;2.10;;;-3.30;66.50;;;;;;5006620;28;20307;-87
2024/01/10 03:31:17;;;;;;;6.93;2.17;;;-3.30;66.90;;;;;;5006834;28;20285;-86
2024/01/10 03:33:43;;;;;;;7.00;1.80;;;-3.30;66.80;;;;;;5024373;28;20026;-87
2024/01/10 03:36:11;;;;;;;7.00;2.30;;;-3.40;66.90;;;;;;5024801;28;20298;-86
2024/01/10 03:38:37;;;;;;;5.73;1.70;;;-3.30;67.20;;;;;;5006379;28;20124;-87
2024/01/10 03:41:02;;;;;;;7.60;2.07;;;-3.30;67.10;;;;;;5007035;28;20292;-87
2024/01/10 03:43:28;;;;;;;5.97;2.00;;;-3.40;67.00;;;;;;5006260;28;20025;-88
2024/01/10 03:45:54;;;;;;;7.00;1.93;;;-3.40;67.10;;;;;;5007010;28;20461;-87
2024/01/10 03:48:20;;;;;;;4.77;1.50;;;-3.40;67.10;;;;;;5006337;28;20018;-88
2024/01/10 03:50:46;;;;;;;5.67;1.93;;;-3.40;66.90;;;;;;5006529;28;20311;-87
2024/01/10 03:53:12;;;;;;;6.73;2.07;;;-3.40;66.80;;;;;;5007030;28;20104;-88
2024/01/10 03:55:38;;;;;;;5.47;1.60;;;-3.40;67.20;;;;;;5006094;28;20030;-88
2024/01/10 03:58:04;;;;;;;5.17;1.80;;;-3.40;67.30;;;;;;5006349;28;20033;-87
2024/01/10 04:00:30;;;;;;;7.70;2.60;;;-3.40;67.30;;;;;;5005480;28;20281;-86
2024/01/10 04:02:56;;;;;;;5.63;2.03;;;-3.50;67.20;;;;;;5006144;28;20080;-86
2024/01/10 04:05:24;;;;;;;5.67;1.90;;;-3.50;67.40;;;;;;5005883;28;20056;-85
2024/01/10 04:07:51;;;;;;;5.93;2.13;;;-3.50;67.70;;;;;;5005896;28;20014;-85
2024/01/10 04:10:16;;;;;;;7.10;2.60;;;-3.40;68.00;;;;;;5005943;28;20280;-86
2024/01/10 04:12:46;;;;;;;8.87;1.93;;;-3.50;67.90;;;;;;5005099;28;20324;-85
2024/01/10 04:15:12;;;;;;;6.37;1.77;;;-3.50;67.80;;;;;;5005369;28;20097;-85
2024/01/10 04:17:38;;;;;;;8.50;2.07;;;-3.50;68.00;;;;;;5005355;28;20277;-86
2024/01/10 04:20:04;;;;;;;6.20;1.93;;;-3.50;68.00;;;;;;5005741;28;20279;-86
2024/01/10 04:22:30;;;;;;;6.93;2.33;;;-3.50;68.50;;;;;;5006073;28;20021;-85
2024/01/10 04:25:01;;;;;;;7.50;2.30;;;-3.50;68.80;;;;;;5005178;28;20281;-85
2024/01/10 04:27:27;;;;;;;8.23;2.37;;;-3.50;69.50;;;;;;5005693;28;20284;-87
2024/01/10 04:29:53;;;;;;;7.97;2.83;;;-3.60;69.40;;;;;;5021143;28;20289;-86
2024/01/10 04:32:19;;;;;;;8.17;3.07;;;-3.60;69.50;;;;;;5004972;28;20470;-85
2024/01/10 04:34:44;;;;;;;9.83;3.30;;;-3.50;69.80;;;;;;5004501;28;20308;-85
2024/01/10 04:37:10;;;;;;;9.23;2.87;;;-3.60;69.80;;;;;;5005164;28;20071;-85
2024/01/10 04:39:37;;;;;;;9.20;3.40;;;-3.60;69.80;;;;;;5004650;28;20022;-85
2024/01/10 04:42:03;;;;;;;6.50;2.37;;;-3.60;69.70;;;;;;5005160;28;20022;-85
2024/01/10 04:44:29;;;;;;;7.17;3.30;;;-3.60;70.20;;;;;;5021558;28;20344;-85
2024/01/10 04:46:55;;;;;;;8.87;3.30;;;-3.60;70.20;;;;;;5004510;28;20284;-85
2024/01/10 04:49:21;;;;;;;7.73;2.50;;;-3.70;70.10;;;;;;5005147;28;20022;-86
2024/01/10 04:51:47;;;;;;;10.37;3.17;;;-3.70;70.30;;;;;;5020599;28;20089;-84
2024/01/10 04:54:13;;;;;;;5.70;2.40;;;-3.70;70.80;;;;;;5023204;28;20030;-86
2024/01/10 04:56:38;;;;;;;8.83;3.20;;;-3.70;70.70;;;;;;5005497;28;20299;-85
2024/01/10 04:59:04;;;;;;;8.40;3.17;;;-3.70;70.80;;;;;;5006104;28;20026;-86
2024/01/10 05:01:31;;;;;;;8.47;3.10;;;-3.70;71.10;;;;;;5026624;28;20033;-87
2024/01/10 05:03:57;;;;;;;6.30;2.17;;;-3.80;70.90;;;;;;5008683;28;20276;-85
2024/01/10 05:06:22;;;;;;;5.97;2.43;;;-3.80;70.80;;;;;;5024309;28;20692;-86
2024/01/10 05:08:48;;;;;;;8.87;2.73;;;-3.80;70.30;;;;;;5023850;28;20022;-88
2024/01/10 05:11:15;;;;;;;7.07;2.50;;;-3.80;71.00;;;;;;5024301;28;20471;-85
2024/01/10 05:13:43;;;;;;;7.30;2.60;;;-3.70;71.20;;;;;;5023343;28;20053;-86
2024/01/10 05:16:09;;;;;;;6.50;2.13;;;-3.80;71.10;;;;;;5024165;28;20288;-87
2024/01/10 05:18:35;;;;;;;7.13;2.93;;;-3.80;70.90;;;;;;5007595;28;20339;-88
2024/01/10 05:21:01;;;;;;;8.90;3.10;;;-3.80;71.50;;;;;;5023988;28;20013;-89
2024/01/10 05:23:27;;;;;;;10.30;2.83;;;-3.80;71.80;;;;;;5024164;28;20072;-90
2024/01/10 05:25:54;;;;;;;9.60;2.93;;;-3.90;72.10;;;;;;5023904;28;20021;-89
2024/01/10 05:28:19;;;;;;;8.53;2.53;;;-3.90;71.50;;;;;;5024300;28;20041;-87
2024/01/10 05:30:45;;;;;;;9.07;3.23;;;-3.90;71.70;;;;;;5024185;28;20383;-88
2024/01/10 05:33:11;;;;;;;7.17;2.70;;;-3.90;72.20;;;;;;5023967;28;20022;-86
2024/01/10 05:35:40;;;;;;;7.60;2.63;;;-3.90;71.50;;;;;;5041997;28;20045;-88
2024/01/10 05:38:05;;;;;;;7.00;2.60;;;-3.90;71.30;;;;;;5023769;28;20026;-87
2024/01/10 05:40:31;;;;;;;6.67;2.27;;;-3.90;71.10;;;;;;5024115;28;20341;-86
2024/01/10 05:42:59;;;;;;;4.97;1.90;;;-4.00;70.90;;;;;;5023286;28;20029;-87
2024/01/10 05:45:25;;;;;;;6.73;2.23;;;-4.00;71.00;;;;;;5025132;28;20026;-86
2024/01/10 05:47:51;;;;;;;8.47;2.70;;;-3.90;71.20;;;;;;5030285;28;20291;-85
2024/01/10 05:50:17;;;;;;;6.80;2.13;;;-4.00;71.00;;;;;;5030216;28;20280;-86
2024/01/10 05:52:43;;;;;;;5.10;1.87;;;-4.00;70.90;;;;;;5030511;28;20024;-86
2024/01/10 05:55:09;;;;;;;7.03;2.30;;;-4.00;70.90;;;;;;5030922;28;20327;-87
2024/01/10 05:57:39;;;;;;;9.23;2.80;;;-4.00;71.00;;;;;;5030993;28;20280;-89
2024/01/10 06:00:09;;;;;;;6.10;2.50;;;-4.00;71.00;;;;;;5048301;28;20288;-87
2024/01/10 06:02:38;;;;;;;7.73;2.10;;;-4.00;71.30;;;;;;5030725;28;20672;-87
2024/01/10 06:05:06;;;;;;;7.80;3.00;;;-3.90;71.00;;;;;;5030091;28;20280;-87
2024/01/10 06:07:32;;;;;;;7.97;2.97;;;-3.90;71.70;;;;;;5030214;28;20311;-87
2024/01/10 06:09:57;;;;;;;7.53;2.73;;;-3.90;71.50;;;;;;5030745;28;20284;-88
2024/01/10 06:12:23;;;;;;;7.73;2.90;;;-3.80;71.90;;;;;;5030276;28;20025;-89
2024/01/10 06:14:49;;;;;;;9.27;2.70;;;-4.00;71.90;;;;;;5030361;28;20030;-87
2024/01/10 06:17:15;;;;;;;10.87;4.13;;;-3.90;72.00;;;;;;5030207;28;20044;-87
2024/01/10 06:19:41;;;;;;;10.20;3.50;;;-3.90;72.30;;;;;;5048533;28;20267;-88
2024/01/10 06:22:07;;;;;;;8.50;3.40;;;-3.90;72.30;;;;;;5030153;28;20280;-90
2024/01/10 06:24:33;;;;;;;9.60;3.50;;;-3.90;72.10;;;;;;5030220;28;20036;-87
2024/01/10 06:26:59;;;;;;;8.63;3.40;;;-3.90;72.60;;;;;;5030222;28;20025;-89
2024/01/10 06:29:25;;;;;;;8.43;3.60;;;-3.90;72.50;;;;;;5029880;28;20060;-88
2024/01/10 06:31:50;;;;;;;9.67;4.20;;;-3.90;72.40;;;;;;5030154;28;20330;-90
2024/01/10 06:34:16;;;;;;;8.27;3.03;;;-3.90;72.30;;;;;;5030079;28;20288;-88
2024/01/10 06:36:42;;;;;;;10.23;3.37;;;-3.90;72.40;;;;;;5030924;28;20029;-86
2024/01/10 06:39:12;;;;;;;9.23;3.53;;;-3.90;72.50;;;;;;5033373;28;20025;-85
2024/01/10 06:41:38;;;;;;;10.33;3.43;;;-3.90;72.20;;;;;;5030100;28;20029;-85
2024/01/10 06:44:04;;;;;;;12.37;3.50;;;-3.90;71.90;;;;;;5030515;28;20308;-85
2024/01/10 06:46:31;;;;;;;9.70;3.40;;;-4.00;72.10;;;;;;5029634;28;20287;-84
2024/01/10 06:48:59;;;;;;;9.30;3.37;;;-4.00;72.20;;;;;;5029548;28;20017;-86
2024/01/10 06:51:25;;;;;;;14.67;4.27;;;-3.90;72.50;;;;;;5046963;28;20283;-84
2024/01/10 06:53:50;;;;;;;10.33;4.27;;;-3.80;72.90;;;;;;5030034;28;20276;-85
2024/01/10 06:56:16;;;;;;;10.60;4.20;;;-3.90;72.50;;;;;;5028765;28;20311;-84
2024/01/10 06:58:41;;;;;;;11.57;3.63;;;-3.90;72.20;;;;;;5026847;28;20532;-85
2024/01/10 07:01:14;;;;;;;12.60;4.33;;;-3.90;72.50;;;;;;5026054;28;20108;-85
2024/01/10 07:03:40;;;;;;;9.97;3.80;;;-3.90;72.60;;;;;;5025546;28;20112;-85
2024/01/10 07:06:06;;;;;;;12.17;4.77;;;-3.90;72.20;;;;;;5025826;28;20338;-85
2024/01/10 07:08:31;;;;;;;8.83;3.80;;;-3.90;72.30;;;;;;5025271;28;20292;-85
2024/01/10 07:10:57;;;;;;;10.30;3.63;;;-3.90;72.20;;;;;;5031879;28;20030;-84
2024/01/10 07:13:23;;;;;;;11.73;3.77;;;-3.90;72.10;;;;;;5034878;28;20104;-85
2024/01/10 07:15:52;;;;;;;12.30;4.70;;;-3.90;72.00;;;;;;5036213;28;20089;-85
2024/01/10 07:18:18;;;;;;;12.40;5.07;;;-4.00;72.10;;;;;;5031894;28;20336;-85
2024/01/10 07:20:43;;;;;;;13.37;5.17;;;-3.90;72.80;;;;;;5035275;28;20296;-85
2024/01/10 07:23:10;;;;;;;11.30;5.10;;;-3.90;72.10;;;;;;5036252;28;20018;-85
2024/01/10 07:25:37;;;;;;;12.23;4.47;;;-3.90;72.00;;;;;;5025050;28;20080;-85
2024/01/10 07:28:03;;;;;;;12.70;4.47;;;-3.90;72.20;;;;;;5043137;28;20796;-85
2024/01/10 07:30:32;;;;;;;12.10;4.67;;;-3.90;72.20;;;;;;5035427;28;20284;-85
2024/01/10 07:32:59;;;;;;;11.43;4.60;;;-3.90;72.10;;;;;;5050604;28;20377;-84
2024/01/10 07:35:25;;;;;;;14.67;4.13;;;-3.90;71.80;;;;;;5034521;28;20360;-85
2024/01/10 07:37:50;;;;;;;15.20;4.80;;;-3.90;72.00;;;;;;5035694;28;20279;-85
2024/01/10 07:40:16;;;;;;;13.70;4.83;;;-3.90;71.90;;;;;;5034462;28;20058;-85
2024/01/10 07:42:42;;;;;;;15.10;5.97;;;-3.90;72.00;;;;;;5034879;28;20103;-85
2024/01/10 07:45:08;;;;;;;10.40;5.30;;;-3.80;72.30;;;;;;5036679;28;20013;-84
2024/01/10 07:47:37;;;;;;;11.03;4.93;;;-3.90;72.00;;;;;;5038291;28;20302;-85
2024/01/10 07:50:07;;;;;;;10.67;4.10;;;-3.90;71.80;;;;;;5035103;28;20283;-85
2024/01/10 07:52:34;;;;;;;10.87;4.33;;;-3.90;71.70;;;;;;5034085;28;20284;-85
2024/01/10 07:55:00;;;;;;;10.80;4.00;;;-3.90;71.70;;;;;;5051772;28;20366;-85
2024/01/10 07:57:27;;;;;;;9.70;4.00;;;-3.90;71.70;;;;;;5025447;28;20280;-88
2024/01/10 07:59:53;;;;;;;13.83;4.90;;;-3.90;71.70;;;;;;5025141;28;20284;-84
2024/01/10 08:02:19;;;;;;;10.23;4.27;;;-3.90;71.80;;;;;;5025654;28;20347;-84
2024/01/10 08:04:45;;;;;;;11.43;5.20;;;-3.90;71.60;;;;;;5025183;28;20284;-84
2024/01/10 08:07:10;;;;;;;12.43;4.37;;;-3.90;71.80;;;;;;5025307;28;20029;-83
2024/01/10 08:09:36;;;;;;;15.17;5.17;;;-3.90;71.70;;;;;;5024662;28;20029;-84
2024/01/10 08:12:06;;;;;;;12.03;5.20;;;-3.80;71.90;;;;;;5041631;28;20013;-85
2024/01/10 08:14:31;;;;;;;14.37;6.03;;;-3.80;71.90;;;;;;5025356;28;20028;-85
2024/01/10 08:17:00;;;;;;;14.80;5.97;;;-3.80;71.80;;;;;;5042637;28;20268;-85
2024/01/10 08:19:27;;;;;;;13.53;5.57;;;-3.70;71.80;;;;;;5025402;28;20036;-81
2024/01/10 08:21:53;;;;;;;12.73;5.73;;;-3.70;71.60;;;;;;5024378;28;20292;-83
2024/01/10 08:24:20;;;;;;;13.77;5.67;;;-3.70;71.60;;;;;;5024951;28;20335;-85
2024/01/10 08:26:51;;;;;;;12.93;4.67;;;-3.70;71.60;;;;;;5025074;28;20284;-91
2024/01/10 08:29:20;;;;;;;15.17;6.10;;;-3.70;71.60;;;;;;5027253;28;20288;-86
2024/01/10 08:31:47;;;;;;;21.07;6.70;;;-3.70;71.70;;;;;;5027784;28;20288;-84
2024/01/10 08:34:12;;;;;;;15.50;6.70;;;-3.60;71.70;;;;;;5025080;28;20264;-85
2024/01/10 08:36:38;;;;;;;21.87;7.40;;;-3.60;71.70;;;;;;5050040;28;20299;-85
2024/01/10 08:39:04;;;;;;;16.33;7.63;;;-3.60;71.40;;;;;;5038931;28;20039;-84
2024/01/10 08:41:30;;;;;;;16.37;7.03;;;-3.50;71.30;;;;;;5044562;28;20070;-84
2024/01/10 08:43:56;;;;;;;19.93;7.57;;;-3.50;71.40;;;;;;5033440;28;20276;-85
2024/01/10 08:46:24;;;;;;;18.37;7.67;;;-3.50;71.50;;;;;;5052921;28;20432;-85
2024/01/10 08:48:50;;;;;;;17.83;7.03;;;-3.50;71.30;;;;;;5030533;28;20308;-85
2024/01/10 08:51:16;;;;;;;19.83;6.47;;;-3.40;71.30;;;;;;5033551;28;20339;-85
2024/01/10 08:53:43;;;;;;;15.70;7.13;;;-3.40;71.30;;;;;;5034688;28;20276;-84
2024/01/10 08:56:10;;;;;;;17.73;6.30;;;-3.30;71.20;;;;;;5048244;28;20287;-85
2024/01/10 08:58:36;;;;;;;17.57;6.87;;;-3.30;70.90;;;;;;5034110;28;20369;-85
2024/01/10 09:01:04;;;;;;;16.60;6.60;;;-3.20;70.80;;;;;;5034225;28;20288;-85
2024/01/10 09:03:29;;;;;;;14.40;5.90;;;-3.20;70.50;;;;;;5029486;28;20287;-85
2024/01/10 09:05:55;;;;;;;14.80;5.87;;;-3.10;70.50;;;;;;5033595;28;20288;-83
2024/01/10 09:08:21;;;;;;;13.27;5.57;;;-3.10;71.20;;;;;;5050791;28;20363;-83
2024/01/10 09:10:49;;;;;;;14.67;6.00;;;-3.00;70.40;;;;;;5034509;28;20017;-85
2024/01/10 09:13:14;;;;;;;16.13;5.60;;;-3.00;70.50;;;;;;5054077;28;20055;-85
2024/01/10 09:15:40;;;;;;;14.60;6.20;;;-3.00;70.60;;;;;;5040812;28;20322;-85
2024/01/10 09:18:06;;;;;;;16.47;6.07;;;-2.80;70.60;;;;;;5039242;28;20031;-84
2024/01/10 09:20:32;;;;;;;15.93;6.17;;;-2.90;70.50;;;;;;5032844;28;20053;-84
2024/01/10 09:23:00;;;;;;;20.93;7.23;;;-2.70;70.50;;;;;;5032466;28;20009;-84
2024/01/10 09:25:25;;;;;;;18.27;7.30;;;-2.70;70.00;;;;;;5028805;28;20026;-86
2024/01/10 09:27:51;;;;;;;15.77;5.87;;;-2.70;69.40;;;;;;5039384;28;20299;-85
2024/01/10 09:30:18;;;;;;;17.80;7.57;;;-2.60;69.30;;;;;;5006542;28;20022;-85
2024/01/10 09:32:44;;;;;;;17.20;7.07;;;-2.60;68.70;;;;;;5023966;28;20378;-85
2024/01/10 09:35:10;;;;;;;17.20;7.23;;;-2.50;69.10;;;;;;5022705;28;20296;-84
2024/01/10 09:37:36;;;;;;;15.87;5.90;;;-2.40;69.30;;;;;;5023912;28;20379;-86
2024/01/10 09:40:02;;;;;;;16.53;6.60;;;-2.20;69.40;;;;;;5023958;28;20023;-85
2024/01/10 09:42:31;;;;;;;16.33;7.10;;;-2.00;69.60;;;;;;5023809;28;20018;-85
2024/01/10 09:44:57;;;;;;;16.43;6.63;;;-1.70;69.80;;;;;;5023598;28;20276;-85
2024/01/10 09:47:24;;;;;;;15.83;5.93;;;-1.40;70.30;;;;;;5023747;28;20272;-85
2024/01/10 09:49:50;;;;;;;15.53;6.00;;;-1.00;70.50;;;;;;5023356;28;20276;-85
2024/01/10 09:52:25;;;;;;;10.77;4.97;;;-0.50;71.30;;;;;;5023679;28;20021;-86
2024/01/10 09:54:56;;;;;;;14.77;6.27;;;0.10;72.20;;;;;;5041480;28;20033;-85
2024/01/10 09:57:23;;;;;;;14.33;6.50;;;0.80;71.60;;;;;;5023911;28;20013;-86
2024/01/10 09:59:51;;;;;;;13.90;5.80;;;1.60;71.50;;;;;;5023682;28;20397;-87
2024/01/10 10:02:22;;;;;;;13.33;5.70;;;2.30;72.10;;;;;;5023639;28;20034;-86
2024/01/10 10:05:08;;;;;;;13.97;5.80;;;3.00;72.40;;;;;;5041381;28;20021;-87
2024/01/10 10:07:48;;;;;;;13.63;5.20;;;3.80;72.50;;;;;;5023888;28;20056;-86
2024/01/10 10:10:15;;;;;;;11.47;5.13;;;4.50;72.20;;;;;;5024093;28;20033;-86
2024/01/10 10:12:48;;;;;;;12.40;5.77;;;5.10;70.80;;;;;;5041385;28;20553;-84
2024/01/10 10:15:21;;;;;;;10.83;5.47;;;5.70;69.60;;;;;;5024335;28;20038;-87
2024/01/10 10:17:48;;;;;;;11.05;5.60;;;6.30;69.70;;;;;;5023493;28;20030;-86
2024/01/10 10:20:25;;;;;;;11.02;5.95;;;6.80;68.70;;;;;;5023779;28;20048;-86
2024/01/10 10:23:00;;;;;;;10.68;5.82;;;7.20;66.60;;;;;;5023811;28;20037;-87
2024/01/10 10:25:29;;;;;;;11.95;6.10;;;7.50;66.40;;;;;;5023243;28;20064;-86
2024/01/10 10:27:55;;;;;;;12.13;6.10;;;7.90;64.30;;;;;;5025946;28;20041;-86
2024/01/10 10:30:22;;;;;;;12.32;6.68;;;8.10;62.30;;;;;;5043214;28;20028;-87
2024/01/10 10:32:47;;;;;;;10.27;5.10;;;8.30;62.30;;;;;;5045184;28;20025;-86
2024/01/10 10:35:13;;;;;;;11.35;5.70;;;8.20;61.70;;;;;;5046982;28;20043;-86
2024/01/10 10:37:39;;;;;;;11.77;5.90;;;8.10;60.30;;;;;;5044376;28;20128;-86
2024/01/10 10:40:08;;;;;;;13.55;6.68;;;8.00;59.30;;;;;;5038117;28;20017;-87
2024/01/10 10:42:38;;;;;;;12.02;6.07;;;7.80;58.70;;;;;;5044444;28;20037;-87
2024/01/10 10:45:06;;;;;;;12.80;6.38;;;7.70;58.90;;;;;;5026873;28;20033;-87
2024/01/10 10:47:36;;;;;;;14.13;6.45;;;7.50;58.50;;;;;;5035874;28;20064;-87
2024/01/10 10:50:04;;;;;;;11.35;6.55;;;7.40;57.60;;;;;;5052880;28;20022;-87
2024/01/10 10:52:31;;;;;;;13.80;7.00;;;7.30;56.00;;;;;;5036073;28;20025;-86
2024/01/10 10:54:59;;;;;;;13.73;6.20;;;7.30;55.70;;;;;;5030167;28;20036;-86
2024/01/10 10:57:27;;;;;;;11.90;6.53;;;7.20;55.70;;;;;;5034271;28;20344;-86
2024/01/10 10:59:55;;;;;;;14.90;7.43;;;7.20;55.00;;;;;;5033234;28;20029;-87
2024/01/10 11:02:25;;;;;;;14.25;6.75;;;7.10;54.90;;;;;;5028806;28;20021;-87
2024/01/10 11:04:52;;;;;;;13.97;6.73;;;7.20;54.10;;;;;;5035945;28;20025;-86
2024/01/10 11:07:18;;;;;;;13.63;6.17;;;7.50;55.00;;;;;;5034835;28;20059;-87
2024/01/10 11:09:46;;;;;;;12.95;6.10;;;7.80;54.60;;;;;;5035273;28;20107;-86
2024/01/10 11:12:55;;;;;;;11.43;5.95;;;8.20;55.00;;;;;;5031298;28;20040;-87
2024/01/10 11:15:49;;;;;;;10.45;5.50;;;8.60;54.40;;;;;;5002868;28;20063;-87
2024/01/10 11:18:33;;;;;;;12.32;6.57;;;8.80;54.50;;;;;;5020600;28;20026;-87
2024/01/10 11:21:10;;;;;;;11.27;6.32;;;8.90;54.40;;;;;;5023546;28;20036;-88
2024/01/10 11:23:44;;;;;;;12.45;6.38;;;8.90;53.00;;;;;;5024895;28;20033;-88
2024/01/10 11:26:11;;;;;;;12.48;6.55;;;8.80;53.20;;;;;;5023332;28;20037;-88
2024/01/10 11:28:40;;;;;;;14.45;6.70;;;8.80;52.70;;;;;;5014503;28;20048;-88
2024/01/10 11:31:08;;;;;;;12.82;6.10;;;9.00;52.70;;;;;;5025012;28;20036;-87
2024/01/10 11:33:43;;;;;;;14.70;7.88;;;9.00;51.70;;;;;;5025045;28;20389;-88
2024/01/10 11:36:17;;;;;;;11.13;5.75;;;9.00;51.00;;;;;;5024780;28;20038;-87
2024/01/10 11:38:44;;;;;;;11.88;6.10;;;8.80;50.10;;;;;;5025468;28;20026;-87
2024/01/10 11:41:20;;;;;;;13.63;6.55;;;8.60;50.10;;;;;;5034520;28;20473;-88
2024/01/10 11:43:45;;;;;;;13.80;7.07;;;8.40;49.50;;;;;;5024957;28;20029;-87
2024/01/10 11:46:12;;;;;;;15.90;7.30;;;8.30;49.10;;;;;;5030755;28;20025;-88
2024/01/10 11:48:39;;;;;;;12.30;7.00;;;8.20;48.80;;;;;;5025187;28;20013;-87
2024/01/10 11:51:05;;;;;;;15.57;7.03;;;8.20;49.20;;;;;;5025342;28;20018;-88
2024/01/10 11:53:46;;;;;;;15.63;7.27;;;8.20;49.10;;;;;;5028164;28;20009;-88
2024/01/10 11:56:16;;;;;;;13.03;7.17;;;8.30;49.20;;;;;;5035993;28;20036;-88
2024/01/10 11:58:55;;;;;;;13.65;7.22;;;8.40;49.10;;;;;;5019483;28;20021;-88
2024/01/10 12:01:22;;;;;;;15.03;7.17;;;8.50;48.60;;;;;;5038977;28;20048;-85
2024/01/10 12:03:51;;;;;;;13.80;7.73;;;8.50;48.80;;;;;;5043130;28;20064;-84
2024/01/10 12:06:17;;;;;;;12.70;6.70;;;8.50;49.20;;;;;;5025293;28;20013;-85
2024/01/10 12:08:43;;;;;;;13.25;6.13;;;8.80;49.40;;;;;;5025075;28;20017;-83
2024/01/10 12:11:09;;;;;;;13.55;6.68;;;9.20;49.60;;;;;;5011735;28;20033;-82
2024/01/10 12:13:35;;;;;;;14.50;7.20;;;9.60;49.40;;;;;;5024353;28;20052;-82
2024/01/10 12:16:00;;;;;;;12.13;6.53;;;9.80;49.00;;;;;;5042395;28;20116;-88
2024/01/10 12:18:26;;;;;;;13.00;6.82;;;10.10;47.80;;;;;;5024568;28;20030;-88
2024/01/10 12:20:52;;;;;;;15.05;7.10;;;10.30;47.80;;;;;;5021158;28;20030;-87
2024/01/10 12:23:17;;;;;;;13.23;7.25;;;10.70;47.50;;;;;;5025004;28;20030;-89
2024/01/10 12:25:43;;;;;;;14.00;5.65;;;11.00;46.90;;;;;;5035211;28;20036;-87
2024/01/10 12:28:09;;;;;;;12.48;6.18;;;11.30;46.50;;;;;;5024712;28;20415;-89
2024/01/10 12:30:35;;;;;;;11.45;6.30;;;11.70;46.60;;;;;;5020987;28;20026;-88
2024/01/10 12:33:01;;;;;;;13.10;6.68;;;12.00;46.20;;;;;;5016511;28;20022;-89
2024/01/10 12:35:27;;;;;;;12.35;6.93;;;12.40;45.70;;;;;;5047534;28;20187;-88
2024/01/10 12:37:56;;;;;;;11.25;6.50;;;12.70;45.80;;;;;;5033375;28;20144;-88
2024/01/10 12:40:22;;;;;;;11.65;6.43;;;13.00;45.40;;;;;;5032066;28;20025;-88
2024/01/10 12:42:48;;;;;;;12.00;7.60;;;13.30;44.60;;;;;;5033817;28;20025;-89